createdAt,value
2017-10-21T00:02:04.009Z,23.80
2017-10-21T00:04:35.098Z,16.77
2017-10-21T00:07:06.809Z,19.57
2017-10-21T00:09:37.881Z,19.80
2017-10-21T00:12:08.778Z,20.10
2017-10-21T00:14:39.882Z,19.87
2017-10-21T00:17:11.048Z,20.20
2017-10-21T00:19:42.027Z,20.10
2017-10-21T00:22:14.369Z,19.97
2017-10-21T00:24:45.297Z,18.23
2017-10-21T00:27:16.446Z,23.57
2017-10-21T00:29:47.382Z,24.60
2017-10-21T00:32:18.520Z,23.33
2017-10-21T00:34:50.336Z,21.93
2017-10-21T00:37:22.279Z,22.50
2017-10-21T00:39:53.411Z,21.00
2017-10-21T00:42:24.614Z,23.47
2017-10-21T00:44:55.540Z,23.90
2017-10-21T00:47:26.617Z,25.33
2017-10-21T00:49:57.594Z,24.50
2017-10-21T00:52:28.750Z,27.27
2017-10-21T00:54:59.876Z,24.23
2017-10-21T00:57:31.031Z,25.20
2017-10-21T01:00:02.372Z,25.43
2017-10-21T01:02:33.459Z,22.73
2017-10-21T01:05:04.434Z,29.30
2017-10-21T01:07:48.677Z,28.00
2017-10-21T01:10:20.105Z,28.70
2017-10-21T01:12:51.249Z,29.97
2017-10-21T01:15:22.440Z,24.83
2017-10-21T01:17:53.489Z,22.43
2017-10-21T01:20:24.750Z,26.80
2017-10-21T01:22:56.004Z,26.77
2017-10-21T01:25:27.973Z,25.17
2017-10-21T01:27:59.185Z,28.63
2017-10-21T01:30:30.426Z,22.70
2017-10-21T01:33:01.457Z,23.90
2017-10-21T01:35:32.654Z,25.50
2017-10-21T01:38:03.979Z,24.20
2017-10-21T01:40:35.314Z,28.83
2017-10-21T01:43:06.533Z,24.43
2017-10-21T01:45:37.718Z,24.43
2017-10-21T01:48:09.785Z,28.63
2017-10-21T01:50:41.535Z,27.20
2017-10-21T01:53:12.793Z,23.70
2017-10-21T01:55:44.838Z,21.20
2017-10-21T01:58:16.203Z,30.17
2017-10-21T02:00:48.298Z,25.70
2017-10-21T02:03:20.218Z,21.97
2017-10-21T02:05:52.225Z,23.90
2017-10-21T02:08:23.735Z,26.93
2017-10-21T02:10:54.974Z,23.80
2017-10-21T02:13:26.108Z,30.40
2017-10-21T02:15:57.249Z,27.83
2017-10-21T02:18:29.269Z,28.03
2017-10-21T02:21:00.491Z,26.33
2017-10-21T02:23:31.673Z,28.27
2017-10-21T02:26:02.830Z,31.90
2017-10-21T02:28:34.005Z,24.67
2017-10-21T02:31:05.113Z,29.20
2017-10-21T02:33:36.261Z,31.60
2017-10-21T02:36:07.493Z,25.03
2017-10-21T02:38:38.569Z,26.67
2017-10-21T02:41:09.811Z,25.37
2017-10-21T02:43:41.065Z,30.30
2017-10-21T02:46:12.950Z,30.50
2017-10-21T02:48:44.124Z,24.87
2017-10-21T02:51:15.077Z,25.60
2017-10-21T02:53:46.226Z,33.57
2017-10-21T02:56:17.322Z,26.80
2017-10-21T02:58:48.446Z,26.80
2017-10-21T03:01:19.485Z,30.13
2017-10-21T03:03:51.217Z,27.70
2017-10-21T03:06:22.311Z,29.90
2017-10-21T03:08:53.501Z,25.77
2017-10-21T03:11:24.493Z,26.50
2017-10-21T03:13:56.356Z,24.53
2017-10-21T03:16:29.262Z,26.73
2017-10-21T03:19:00.786Z,25.63
2017-10-21T03:21:31.797Z,29.30
2017-10-21T03:24:03.010Z,29.73
2017-10-21T03:26:34.230Z,27.43
2017-10-21T03:29:05.359Z,27.53
2017-10-21T03:31:36.646Z,27.30
2017-10-21T03:34:07.852Z,24.53
2017-10-21T03:36:39.221Z,23.17
2017-10-21T03:39:10.610Z,23.87
2017-10-21T03:41:41.697Z,21.20
2017-10-21T03:44:13.277Z,25.57
2017-10-21T03:46:44.221Z,29.67
2017-10-21T03:49:15.358Z,25.50
2017-10-21T03:51:46.441Z,24.70
2017-10-21T03:54:17.478Z,28.70
2017-10-21T03:56:48.666Z,31.93
2017-10-21T03:59:20.811Z,25.60
2017-10-21T04:01:51.942Z,25.50
2017-10-21T04:04:23.151Z,23.10
2017-10-21T04:06:54.254Z,24.97
2017-10-21T04:09:25.418Z,24.47
2017-10-21T04:11:56.774Z,32.10
2017-10-21T04:14:27.865Z,25.97
2017-10-21T04:16:58.897Z,24.40
2017-10-21T04:19:30.217Z,24.07
2017-10-21T04:22:01.307Z,26.57
2017-10-21T04:24:32.486Z,28.00
2017-10-21T04:27:04.094Z,25.10
2017-10-21T04:29:35.991Z,22.50
2017-10-21T04:32:07.036Z,26.90
2017-10-21T04:34:38.156Z,35.27
2017-10-21T04:37:10.842Z,31.03
2017-10-21T04:39:42.690Z,25.23
2017-10-21T04:42:13.832Z,24.60
2017-10-21T04:44:45.030Z,27.53
2017-10-21T04:47:15.969Z,30.10
2017-10-21T04:49:47.042Z,22.37
2017-10-21T04:52:18.236Z,29.37
2017-10-21T04:54:49.686Z,28.57
2017-10-21T04:57:21.638Z,34.70
2017-10-21T04:59:53.491Z,28.20
2017-10-21T05:02:24.669Z,28.00
2017-10-21T05:04:55.877Z,22.20
2017-10-21T05:07:26.722Z,30.50
2017-10-21T05:09:58.258Z,38.37
2017-10-21T05:12:29.400Z,34.60
2017-10-21T05:15:01.181Z,22.37
2017-10-21T05:17:32.325Z,26.03
2017-10-21T05:20:03.649Z,33.33
2017-10-21T05:22:34.913Z,25.00
2017-10-21T05:25:06.781Z,23.63
2017-10-21T05:27:37.909Z,20.77
2017-10-21T05:30:09.230Z,24.13
2017-10-21T05:32:40.213Z,23.83
2017-10-21T05:35:11.197Z,29.60
2017-10-21T05:37:42.353Z,28.80
2017-10-21T05:40:13.798Z,23.37
2017-10-21T05:42:45.053Z,21.30
2017-10-21T05:45:16.237Z,24.67
2017-10-21T05:47:47.562Z,23.03
2017-10-21T05:50:18.766Z,24.50
2017-10-21T05:52:49.819Z,33.17
2017-10-21T05:55:21.173Z,21.80
2017-10-21T05:57:52.458Z,26.73
2017-10-21T06:00:24.486Z,25.27
2017-10-21T06:02:55.795Z,20.43
2017-10-21T06:05:27.278Z,23.57
2017-10-21T06:07:58.561Z,18.80
2017-10-21T06:10:29.708Z,23.10
2017-10-21T06:13:00.837Z,25.00
2017-10-21T06:15:32.379Z,22.23
2017-10-21T06:18:04.421Z,25.90
2017-10-21T06:20:35.697Z,25.57
2017-10-21T06:23:06.684Z,26.77
2017-10-21T06:25:37.893Z,23.67
2017-10-21T06:28:09.062Z,30.10
2017-10-21T06:30:40.314Z,23.53
2017-10-21T06:33:12.141Z,26.63
2017-10-21T06:35:43.493Z,23.90
2017-10-21T06:38:14.388Z,28.60
2017-10-21T06:40:45.585Z,21.83
2017-10-21T06:43:17.350Z,22.87
2017-10-21T06:45:50.208Z,21.73
2017-10-21T06:48:21.470Z,22.57
2017-10-21T06:50:52.506Z,22.90
2017-10-21T06:53:24.658Z,20.37
2017-10-21T06:55:55.757Z,22.53
2017-10-21T06:58:27.007Z,22.63
2017-10-21T07:00:58.832Z,20.10
2017-10-21T07:03:29.849Z,21.97
2017-10-21T07:06:18.878Z,19.10
2017-10-21T07:08:49.493Z,24.73
2017-10-21T07:11:20.488Z,18.17
2017-10-21T07:13:51.813Z,18.33
2017-10-21T07:54:53.218Z,29.60
2017-10-21T07:57:24.374Z,29.33
2017-10-21T07:59:55.462Z,32.27
2017-10-21T08:02:26.829Z,34.30
2017-10-21T08:04:57.653Z,38.43
2017-10-21T08:07:29.418Z,30.57
2017-10-21T08:10:01.166Z,28.10
2017-10-21T08:12:32.970Z,29.33
2017-10-21T08:15:03.996Z,45.30
2017-10-21T08:17:34.818Z,28.87
2017-10-21T08:20:06.524Z,26.63
2017-10-21T08:22:37.208Z,31.80
2017-10-21T08:25:09.054Z,42.83
2017-10-21T08:27:40.961Z,42.03
2017-10-21T08:30:11.984Z,31.60
2017-10-21T08:32:42.702Z,39.07
2017-10-21T08:35:13.666Z,40.83
2017-10-21T08:37:44.633Z,36.63
2017-10-21T08:40:15.530Z,35.80
2017-10-21T08:42:46.482Z,39.63
2017-10-21T08:45:17.623Z,39.53
2017-10-21T08:47:48.791Z,33.83
2017-10-21T08:50:19.791Z,33.07
2017-10-21T08:52:51.422Z,29.73
2017-10-21T08:55:23.104Z,31.77
2017-10-21T08:57:54.050Z,34.83
2017-10-21T09:09:23.826Z,30.03
2017-10-21T09:11:54.432Z,28.07
2017-10-21T09:14:25.265Z,26.67
2017-10-21T09:16:55.947Z,24.97
2017-10-21T09:19:27.334Z,20.93
2017-10-21T09:21:58.225Z,18.10
2017-10-21T09:24:29.886Z,22.80
2017-10-21T09:27:00.999Z,27.70
2017-10-21T09:29:32.000Z,33.50
2017-10-21T09:32:03.794Z,22.23
2017-10-21T09:34:34.595Z,18.77
2017-10-21T09:37:05.383Z,27.00
2017-10-21T09:39:36.093Z,30.00
2017-10-21T09:42:07.022Z,19.93
2017-10-21T09:44:38.012Z,15.40
2017-10-21T09:47:09.014Z,28.43
2017-10-21T09:49:39.757Z,22.93
2017-10-21T09:52:10.706Z,23.23
2017-10-21T09:54:41.635Z,24.73
2017-10-21T09:57:12.536Z,32.70
2017-10-21T09:59:43.221Z,20.17
2017-10-21T10:02:14.476Z,24.90
2017-10-21T10:04:45.582Z,21.20
2017-10-21T10:07:16.262Z,16.67
2017-10-21T10:09:47.701Z,31.20
2017-10-21T10:12:18.606Z,20.00
2017-10-21T10:14:49.677Z,18.57
2017-10-21T10:17:20.508Z,25.77
2017-10-21T10:19:51.447Z,18.00
2017-10-21T10:22:22.096Z,21.27
2017-10-21T10:24:52.823Z,20.00
2017-10-21T10:27:23.370Z,17.97
2017-10-21T10:29:55.172Z,29.33
2017-10-21T10:32:25.979Z,23.50
2017-10-21T10:34:57.560Z,17.80
2017-10-21T10:37:28.411Z,16.30
2017-10-21T10:39:59.294Z,14.33
2017-10-21T10:42:30.481Z,23.23
2017-10-21T10:45:01.434Z,19.53
2017-10-21T10:47:33.103Z,24.00
2017-10-21T10:50:04.326Z,10.03
2017-10-21T10:52:35.893Z,24.43
2017-10-21T10:55:06.928Z,24.13
2017-10-21T10:57:37.907Z,23.43
2017-10-21T11:00:08.567Z,21.70
2017-10-21T11:02:39.534Z,20.10
2017-10-21T11:05:10.779Z,20.80
2017-10-21T11:07:41.901Z,22.33
2017-10-21T11:10:13.172Z,21.97
2017-10-21T11:12:43.880Z,31.93
2017-10-21T11:15:14.856Z,19.70
2017-10-21T11:17:45.637Z,16.97
2017-10-21T11:20:17.740Z,25.40
2017-10-21T11:22:48.656Z,16.70
2017-10-21T11:25:19.701Z,16.37
2017-10-21T11:27:50.618Z,28.23
2017-10-21T11:30:22.121Z,18.27
2017-10-21T11:32:53.177Z,20.43
2017-10-21T11:35:24.192Z,20.20
2017-10-21T11:37:55.328Z,25.77
2017-10-21T11:40:26.262Z,14.77
2017-10-21T11:42:57.196Z,11.23
2017-10-21T11:45:28.221Z,20.13
2017-10-21T11:47:59.092Z,16.90
2017-10-21T11:50:29.758Z,18.53
2017-10-21T11:53:00.639Z,16.20
2017-10-21T11:55:31.775Z,15.43
2017-10-21T11:58:02.940Z,18.50
2017-10-21T12:00:33.709Z,13.97
2017-10-21T12:03:04.428Z,12.70
2017-10-21T12:05:35.244Z,16.47
2017-10-21T12:08:05.880Z,18.17
2017-10-21T12:10:38.076Z,24.63
2017-10-21T12:13:08.944Z,10.33
2017-10-21T12:15:39.740Z,15.93
2017-10-21T12:18:11.081Z,22.53
2017-10-21T12:20:41.933Z,13.83
2017-10-21T12:23:12.964Z,15.47
2017-10-21T12:25:43.592Z,14.10
2017-10-21T12:28:14.703Z,12.93
2017-10-21T12:30:45.333Z,18.83
2017-10-21T12:33:17.386Z,20.90
2017-10-21T12:35:48.795Z,18.20
2017-10-21T12:38:21.085Z,10.67
2017-10-21T12:40:51.700Z,14.30
2017-10-21T12:43:22.543Z,19.80
2017-10-21T12:45:53.284Z,13.07
2017-10-21T12:48:24.753Z,59.27
2017-10-21T12:50:55.488Z,83.83
2017-10-21T12:53:26.361Z,50.63
2017-10-21T12:55:57.348Z,51.50
2017-10-21T12:58:28.868Z,46.10
2017-10-21T13:00:59.469Z,62.63
2017-10-21T13:03:30.257Z,44.80
2017-10-21T13:06:00.909Z,51.03
2017-10-21T13:08:31.023Z,34.13
2017-10-21T13:11:01.692Z,38.67
2017-10-21T13:13:33.370Z,37.40
2017-10-21T13:16:04.618Z,29.40
2017-10-21T13:18:35.537Z,32.30
2017-10-21T13:21:06.063Z,34.30
2017-10-21T13:23:36.362Z,21.10
2017-10-21T13:26:06.876Z,21.37
2017-10-21T13:28:37.129Z,22.10
2017-10-21T13:31:07.418Z,19.90
2017-10-21T13:33:37.899Z,19.50
2017-10-21T13:36:08.630Z,23.93
2017-10-21T13:38:39.230Z,17.73
2017-10-21T13:41:09.727Z,16.57
2017-10-21T13:43:40.106Z,14.80
2017-10-21T13:46:10.405Z,21.90
2017-10-21T13:48:40.805Z,21.03
2017-10-21T13:51:11.372Z,22.03
2017-10-21T13:53:42.109Z,18.57
2017-10-21T13:56:14.122Z,17.63
2017-10-21T13:58:44.635Z,13.37
2017-10-21T14:01:15.133Z,13.37
2017-10-21T14:03:45.572Z,11.17
2017-10-21T14:06:15.900Z,17.67
2017-10-21T14:08:46.959Z,16.63
2017-10-21T14:11:17.598Z,8.73
2017-10-21T14:13:47.961Z,13.30
2017-10-21T14:16:18.378Z,18.77
2017-10-21T14:18:48.525Z,15.47
2017-10-21T14:21:18.871Z,7.17
2017-10-21T14:23:49.430Z,16.13
2017-10-21T14:26:19.925Z,14.90
2017-10-21T14:28:50.450Z,8.63
2017-10-21T14:31:21.799Z,12.00
2017-10-21T14:33:52.319Z,18.20
2017-10-21T14:36:22.900Z,16.50
2017-10-21T14:38:53.433Z,13.27
2017-10-21T14:41:23.972Z,13.40
2017-10-21T14:43:55.097Z,15.00
2017-10-21T14:46:25.373Z,16.63
2017-10-21T14:48:55.669Z,12.80
2017-10-21T14:51:26.037Z,8.73
2017-10-21T14:53:57.269Z,13.90
2017-10-21T14:56:27.895Z,10.07
2017-10-21T14:58:58.333Z,6.23
2017-10-21T15:01:28.669Z,20.60
2017-10-21T15:03:58.981Z,8.63
2017-10-21T15:06:29.400Z,12.33
2017-10-21T15:09:00.142Z,10.97
2017-10-21T15:11:30.688Z,13.80
2017-10-21T15:14:01.064Z,8.03
2017-10-21T15:16:31.317Z,9.23
2017-10-21T15:19:01.569Z,10.60
2017-10-21T15:21:32.746Z,13.00
2017-10-21T15:24:03.135Z,11.17
2017-10-21T15:26:33.624Z,16.37
2017-10-21T15:29:03.915Z,10.53
2017-10-21T15:31:34.606Z,9.23
2017-10-21T15:34:04.979Z,11.37
2017-10-21T15:36:35.447Z,13.80
2017-10-21T15:39:05.863Z,12.80
2017-10-21T15:41:36.366Z,11.63
2017-10-21T15:44:06.831Z,9.40
2017-10-21T15:46:37.165Z,11.07
2017-10-21T15:49:08.195Z,7.17
2017-10-21T15:51:39.452Z,7.13
2017-10-21T15:54:11.050Z,10.73
2017-10-21T15:56:42.120Z,5.80
2017-10-21T15:59:12.499Z,8.03
2017-10-21T16:01:42.869Z,12.00
2017-10-21T16:04:13.121Z,6.17
2017-10-21T16:06:43.490Z,6.57
2017-10-21T16:09:13.725Z,6.90
2017-10-21T16:11:44.070Z,15.57
2017-10-21T16:14:15.141Z,4.83
2017-10-21T16:16:45.400Z,6.90
2017-10-21T16:19:15.758Z,6.67
2017-10-21T16:21:46.053Z,8.90
2017-10-21T16:24:16.417Z,15.53
2017-10-21T16:26:46.904Z,11.97
2017-10-21T16:29:17.091Z,8.93
2017-10-21T16:31:47.440Z,9.20
2017-10-21T16:34:17.879Z,7.90
2017-10-21T16:36:48.395Z,9.90
2017-10-21T16:39:19.549Z,7.80
2017-10-21T16:41:49.753Z,11.53
2017-10-21T16:44:20.435Z,13.03
2017-10-21T16:46:50.838Z,5.13
2017-10-21T16:49:21.287Z,5.93
2017-10-21T16:51:51.349Z,5.53
2017-10-21T16:54:21.595Z,13.57
2017-10-21T16:56:52.031Z,6.30
2017-10-21T16:59:22.158Z,8.77
2017-10-21T17:01:52.394Z,10.00
2017-10-21T17:04:23.823Z,8.83
2017-10-21T17:06:54.111Z,9.10
2017-10-21T17:09:24.535Z,7.83
2017-10-21T17:11:54.764Z,5.53
2017-10-21T17:14:25.146Z,7.17
2017-10-21T17:16:55.532Z,10.20
2017-10-21T17:19:25.595Z,10.73
2017-10-21T17:21:56.504Z,5.57
2017-10-21T17:24:26.236Z,11.67
2017-10-21T17:26:55.940Z,11.77
2017-10-21T17:29:25.651Z,6.20
2017-10-21T17:31:55.551Z,8.10
2017-10-21T17:34:25.642Z,8.90
2017-10-21T17:36:55.716Z,7.30
2017-10-21T17:39:26.551Z,7.93
2017-10-21T17:41:57.559Z,7.97
2017-10-21T17:44:28.214Z,7.13
2017-10-21T17:46:58.733Z,8.13
2017-10-21T17:49:29.474Z,7.03
2017-10-21T17:51:59.588Z,6.03
2017-10-21T17:54:30.946Z,9.87
2017-10-21T17:57:00.852Z,6.13
2017-10-21T17:59:30.975Z,7.53
2017-10-21T18:02:00.906Z,9.73
2017-10-21T18:04:30.798Z,8.30
2017-10-21T18:07:01.005Z,7.37
2017-10-21T18:09:32.572Z,6.43
2017-10-21T18:12:02.488Z,11.00
2017-10-21T18:14:32.197Z,9.43
2017-10-21T18:17:02.337Z,10.43
2017-10-21T18:19:32.437Z,13.60
2017-10-21T18:22:02.158Z,11.00
2017-10-21T18:24:33.186Z,12.23
2017-10-21T18:27:03.820Z,10.93
2017-10-21T18:29:33.940Z,10.37
2017-10-21T18:32:05.076Z,8.27
2017-10-21T18:34:35.300Z,9.20
2017-10-21T18:37:05.296Z,8.73
2017-10-21T18:39:35.254Z,10.13
2017-10-21T18:42:05.452Z,9.60
2017-10-21T18:44:35.578Z,11.63
2017-10-21T18:47:05.691Z,10.83
2017-10-21T18:49:36.011Z,13.60
2017-10-21T18:52:06.134Z,11.83
2017-10-21T18:54:36.459Z,8.90
2017-10-21T18:57:06.390Z,11.67
2017-10-21T18:59:37.204Z,10.60
2017-10-21T19:02:06.917Z,14.63
2017-10-21T19:04:37.042Z,11.30
2017-10-21T19:07:07.048Z,12.90
2017-10-21T19:09:37.028Z,12.70
2017-10-21T19:12:07.004Z,12.23
2017-10-21T19:14:37.106Z,12.67
2017-10-21T19:17:07.867Z,14.40
2017-10-21T19:19:38.065Z,13.27
2017-10-21T19:22:08.922Z,17.50
2017-10-21T19:24:40.057Z,14.27
2017-10-21T19:27:09.852Z,16.53
2017-10-21T19:29:40.172Z,18.10
2017-10-21T19:32:10.089Z,16.77
2017-10-21T19:34:40.161Z,17.90
2017-10-21T19:37:10.221Z,16.90
2017-10-21T19:39:41.088Z,18.37
2017-10-21T19:42:11.189Z,17.60
2017-10-21T19:44:41.608Z,21.77
2017-10-21T19:47:11.517Z,20.80
2017-10-21T19:49:42.048Z,21.57
2017-10-21T19:52:11.960Z,23.50
2017-10-21T19:54:41.669Z,19.13
2017-10-21T19:57:12.197Z,20.87
2017-10-21T19:59:42.112Z,21.53
2017-10-21T20:02:12.030Z,22.13
2017-10-21T20:04:41.942Z,19.20
2017-10-21T20:07:12.768Z,18.77
2017-10-21T20:09:42.917Z,20.07
2017-10-21T20:12:13.287Z,23.87
2017-10-21T20:14:43.299Z,21.50
2017-10-21T20:17:13.400Z,22.90
2017-10-21T20:19:43.492Z,26.87
2017-10-21T20:22:14.995Z,20.97
2017-10-21T20:24:45.251Z,24.10
2017-10-21T20:27:15.164Z,19.73
2017-10-21T20:29:45.303Z,25.27
2017-10-21T20:32:15.402Z,23.10
2017-10-21T20:34:46.431Z,22.83
2017-10-21T20:37:16.440Z,23.87
2017-10-21T20:39:46.540Z,24.13
2017-10-21T20:42:16.589Z,25.23
2017-10-21T20:44:46.327Z,27.47
2017-10-21T20:47:16.116Z,25.33
2017-10-21T20:49:46.239Z,27.67
2017-10-21T20:52:16.342Z,28.87
2017-10-21T20:54:46.276Z,26.80
2017-10-21T20:57:17.055Z,28.17
2017-10-21T20:59:47.224Z,28.97
2017-10-21T21:02:17.081Z,24.03
2017-10-21T21:04:47.051Z,25.10
2017-10-21T21:07:16.763Z,24.40
2017-10-21T21:09:46.678Z,29.23
2017-10-21T21:12:16.596Z,22.10
2017-10-21T21:14:47.127Z,27.90
2017-10-21T21:17:17.248Z,20.90
2017-10-21T21:19:47.103Z,19.90
2017-10-21T21:22:17.081Z,21.07
2017-10-21T21:24:46.980Z,31.73
2017-10-21T21:27:16.690Z,20.93
2017-10-21T21:29:48.448Z,20.93
2017-10-21T21:32:18.144Z,19.93
2017-10-21T21:34:48.418Z,18.30
2017-10-21T21:37:18.308Z,20.47
2017-10-21T21:39:48.208Z,17.57
2017-10-21T21:42:19.043Z,21.20
2017-10-21T21:44:49.143Z,24.03
2017-10-21T21:47:19.389Z,18.60
2017-10-21T21:49:50.016Z,17.97
2017-10-21T21:52:20.853Z,23.67
2017-10-21T21:54:50.974Z,15.93
2017-10-21T21:57:22.215Z,22.63
2017-10-21T21:59:52.546Z,19.97
2017-10-21T22:02:22.865Z,20.43
2017-10-21T22:04:52.784Z,17.90
2017-10-21T22:07:23.135Z,17.20
2017-10-21T22:09:53.283Z,15.83
2017-10-21T22:12:23.650Z,15.60
2017-10-21T22:14:53.972Z,15.10
2017-10-21T22:17:23.965Z,15.40
2017-10-21T22:19:53.969Z,13.90
2017-10-21T22:22:24.149Z,15.57
2017-10-21T22:24:54.164Z,15.20
2017-10-21T22:27:24.305Z,14.80
2017-10-21T22:29:54.685Z,16.30
2017-10-21T22:32:24.771Z,16.33
2017-10-21T22:34:54.716Z,14.90
2017-10-21T22:37:24.842Z,14.57
2017-10-21T22:39:55.120Z,18.47
2017-10-21T22:42:25.042Z,19.50
2017-10-21T22:44:55.155Z,15.57
2017-10-21T22:47:25.313Z,15.07
2017-10-21T22:49:55.393Z,16.87
2017-10-21T22:52:25.341Z,17.87
2017-10-21T22:54:56.100Z,19.27
2017-10-21T22:57:26.747Z,18.30
2017-10-21T22:59:56.727Z,18.63
2017-10-21T23:02:26.439Z,18.63
2017-10-21T23:04:56.364Z,19.53
2017-10-21T23:07:26.394Z,20.50
2017-10-21T23:09:57.409Z,20.70
2017-10-21T23:12:28.353Z,22.20
2017-10-21T23:14:59.838Z,21.73
2017-10-21T23:17:29.918Z,29.23
2017-10-21T23:19:59.782Z,26.87
2017-10-21T23:22:29.539Z,22.70
2017-10-21T23:24:59.458Z,22.77
2017-10-21T23:27:29.566Z,20.43
2017-10-21T23:29:59.438Z,22.30
2017-10-21T23:32:29.303Z,21.53
2017-10-21T23:34:59.221Z,22.10
2017-10-21T23:37:29.083Z,25.60
2017-10-21T23:39:59.043Z,30.13
2017-10-21T23:42:28.762Z,22.57
2017-10-21T23:44:58.664Z,24.00
2017-10-21T23:47:29.298Z,27.00
2017-10-21T23:49:59.007Z,26.83
2017-10-21T23:52:29.514Z,26.10
2017-10-21T23:54:59.252Z,28.63
2017-10-21T23:57:29.876Z,29.70
2017-10-21T23:59:59.584Z,28.97
